createdAt,value
2023-01-11T00:01:43.959Z,82.42
2023-01-11T00:04:30.497Z,81.49
2023-01-11T00:07:13.857Z,80.29
2023-01-11T00:09:58.292Z,79.86
2023-01-11T00:12:41.364Z,81.30
2023-01-11T00:15:24.370Z,80.55
2023-01-11T00:18:07.880Z,80.67
2023-01-11T00:20:50.952Z,82.12
2023-01-11T00:23:34.052Z,82.26
2023-01-11T00:26:18.581Z,82.14
2023-01-11T00:29:01.799Z,82.28
2023-01-11T00:31:45.162Z,82.28
2023-01-11T00:34:28.352Z,82.20
2023-01-11T00:37:11.443Z,81.47
2023-01-11T00:39:54.900Z,83.19
2023-01-11T00:42:56.627Z,82.04
2023-01-11T00:45:57.366Z,82.47
2023-01-11T00:48:40.477Z,82.23
2023-01-11T00:51:23.785Z,85.61
2023-01-11T00:54:06.859Z,85.90
2023-01-11T00:56:49.854Z,84.13
2023-01-11T00:59:34.305Z,82.83
2023-01-11T01:02:17.709Z,83.24
2023-01-11T01:05:00.770Z,84.51
2023-01-11T01:07:44.336Z,84.37
2023-01-11T01:10:27.342Z,85.39
2023-01-11T01:13:29.879Z,85.65
2023-01-11T01:16:14.548Z,86.31
2023-01-11T01:18:57.687Z,85.22
2023-01-11T01:21:40.790Z,85.15
2023-01-11T01:24:24.256Z,85.59
2023-01-11T01:27:07.312Z,87.46
2023-01-11T01:29:50.399Z,86.89
2023-01-11T01:32:34.865Z,87.25
2023-01-11T01:35:17.948Z,86.24
2023-01-11T01:38:00.969Z,86.41
2023-01-11T01:40:45.865Z,85.65
2023-01-11T01:43:47.850Z,85.12
2023-01-11T01:46:32.196Z,85.97
2023-01-11T01:49:17.675Z,87.57
2023-01-11T01:52:02.251Z,87.36
2023-01-11T01:54:49.564Z,88.10
2023-01-11T01:57:36.775Z,87.75
2023-01-11T02:00:20.601Z,87.82
2023-01-11T02:03:03.932Z,89.22
2023-01-11T02:05:50.251Z,89.82
2023-01-11T02:08:39.463Z,87.52
2023-01-11T02:11:32.350Z,87.43
2023-01-11T02:14:18.896Z,88.78
2023-01-11T02:17:03.154Z,88.13
2023-01-11T02:19:56.739Z,88.02
2023-01-11T02:23:10.787Z,85.39
2023-01-11T02:26:41.127Z,87.05
2023-01-11T02:29:35.912Z,86.73
2023-01-11T02:32:30.009Z,85.08
2023-01-11T02:35:22.191Z,84.78
2023-01-11T02:38:12.034Z,85.53
2023-01-11T02:41:04.159Z,84.30
2023-01-11T02:44:08.772Z,84.60
2023-01-11T02:46:59.677Z,83.77
2023-01-11T02:49:51.566Z,82.68
2023-01-11T02:52:42.753Z,82.11
2023-01-11T02:55:30.484Z,83.50
2023-01-11T02:58:13.792Z,85.10
2023-01-11T03:00:58.575Z,85.02
2023-01-11T03:03:43.037Z,84.62
2023-01-11T03:06:29.994Z,84.33
2023-01-11T03:09:22.977Z,84.92
2023-01-11T03:12:39.019Z,85.27
2023-01-11T03:16:00.464Z,83.46
2023-01-11T03:18:52.911Z,82.73
2023-01-11T03:21:53.519Z,84.00
2023-01-11T03:24:45.931Z,83.28
2023-01-11T03:27:38.707Z,82.99
2023-01-11T03:30:29.216Z,83.28
2023-01-11T03:33:19.356Z,82.41
2023-01-11T03:36:10.301Z,82.38
2023-01-11T03:38:57.602Z,83.52
2023-01-11T03:41:44.834Z,82.87
2023-01-11T03:44:31.598Z,83.69
2023-01-11T03:47:17.912Z,84.29
2023-01-11T03:50:05.584Z,83.76
2023-01-11T03:52:52.301Z,83.80
2023-01-11T03:55:40.740Z,81.48
2023-01-11T03:58:24.558Z,80.92
2023-01-11T04:01:09.001Z,82.31
2023-01-11T04:03:52.166Z,81.97
2023-01-11T04:06:38.990Z,81.54
2023-01-11T04:09:23.547Z,82.49
2023-01-11T04:12:07.508Z,82.80
2023-01-11T04:14:50.510Z,81.57
2023-01-11T04:17:34.586Z,82.82
2023-01-11T04:20:17.937Z,81.95
2023-01-11T04:23:01.227Z,81.22
2023-01-11T04:25:47.059Z,81.38
2023-01-11T04:28:30.161Z,81.85
2023-01-11T04:31:13.539Z,81.60
2023-01-11T04:33:56.648Z,81.56
2023-01-11T04:36:39.821Z,82.76
2023-01-11T04:39:22.981Z,82.13
2023-01-11T04:42:19.669Z,83.13
2023-01-11T04:45:05.508Z,83.08
2023-01-11T04:47:56.142Z,83.40
2023-01-11T04:50:39.317Z,83.57
2023-01-11T04:53:22.484Z,83.29
2023-01-11T04:56:07.338Z,83.70
2023-01-11T04:58:51.963Z,83.94
2023-01-11T05:01:35.060Z,83.99
2023-01-11T05:04:18.382Z,84.00
2023-01-11T05:07:01.490Z,83.72
2023-01-11T05:09:44.967Z,84.22
2023-01-11T05:12:28.023Z,84.05
2023-01-11T05:15:13.451Z,83.49
2023-01-11T05:17:56.454Z,82.70
2023-01-11T05:20:39.495Z,83.30
2023-01-11T05:23:22.546Z,82.55
2023-01-11T05:26:07.705Z,82.03
2023-01-11T05:28:51.764Z,82.15
2023-01-11T05:31:37.976Z,82.23
2023-01-11T05:34:21.114Z,82.22
2023-01-11T05:37:04.207Z,82.05
2023-01-11T05:39:47.270Z,81.85
2023-01-11T05:42:30.372Z,81.73
2023-01-11T05:45:31.053Z,79.40
2023-01-11T05:48:15.594Z,81.73
2023-01-11T05:51:01.358Z,80.90
2023-01-11T05:53:44.861Z,80.14
2023-01-11T05:56:28.236Z,80.75
2023-01-11T05:59:11.363Z,80.18
2023-01-11T06:01:55.601Z,79.52
2023-01-11T06:04:40.085Z,79.63
2023-01-11T06:07:25.069Z,79.08
2023-01-11T06:10:09.324Z,79.26
2023-01-11T06:13:16.124Z,78.84
2023-01-11T06:16:01.571Z,79.02
2023-01-11T06:18:46.544Z,79.44
2023-01-11T06:21:31.497Z,79.15
2023-01-11T06:24:14.546Z,79.66
2023-01-11T06:26:58.171Z,78.92
2023-01-11T06:29:41.627Z,77.84
2023-01-11T06:32:24.773Z,78.58
2023-01-11T06:35:08.470Z,79.09
2023-01-11T06:37:53.214Z,78.74
2023-01-11T06:40:36.689Z,77.72
2023-01-11T06:43:19.697Z,78.63
2023-01-11T06:46:03.057Z,76.91
2023-01-11T06:48:46.254Z,77.79
2023-01-11T06:51:29.369Z,76.54
2023-01-11T06:54:13.827Z,78.33
2023-01-11T06:56:56.898Z,76.53
2023-01-11T06:59:40.573Z,74.84
2023-01-11T07:02:23.621Z,72.91
2023-01-11T07:05:07.645Z,70.45
2023-01-11T07:07:50.786Z,56.19
2023-01-11T07:10:35.366Z,45.58
2023-01-11T07:13:18.613Z,40.07
2023-01-11T07:16:02.205Z,43.46
2023-01-11T07:18:46.693Z,48.78
2023-01-11T07:21:29.885Z,52.60
2023-01-11T07:24:13.296Z,54.93
2023-01-11T07:26:59.736Z,55.54
2023-01-11T07:29:42.840Z,55.79
2023-01-11T07:32:27.730Z,51.62
2023-01-11T07:35:11.281Z,52.92
2023-01-11T07:37:54.432Z,53.41
2023-01-11T07:40:39.983Z,53.47
2023-01-11T07:43:23.862Z,53.29
2023-01-11T07:46:07.635Z,52.38
2023-01-11T07:48:50.777Z,52.40
2023-01-11T07:51:33.821Z,49.18
2023-01-11T07:54:17.245Z,46.48
2023-01-11T07:57:00.348Z,42.03
2023-01-11T07:59:44.839Z,42.85
2023-01-11T08:02:27.938Z,47.98
2023-01-11T08:05:11.467Z,51.02
2023-01-11T08:07:54.731Z,52.49
2023-01-11T08:10:39.188Z,52.80
2023-01-11T08:13:41.551Z,51.75
2023-01-11T08:16:27.487Z,52.63
2023-01-11T08:19:10.643Z,55.12
2023-01-11T08:21:53.963Z,58.25
2023-01-11T08:24:37.374Z,58.84
2023-01-11T08:27:20.485Z,59.58
2023-01-11T08:30:03.513Z,58.47
2023-01-11T08:32:48.461Z,59.10
2023-01-11T08:35:32.893Z,56.74
2023-01-11T08:38:15.957Z,52.12
2023-01-11T08:40:59.082Z,47.47
2023-01-11T08:43:42.671Z,48.65
2023-01-11T08:46:26.546Z,49.27
2023-01-11T08:49:12.509Z,51.89
2023-01-11T08:51:55.664Z,51.31
2023-01-11T08:54:38.807Z,54.83
2023-01-11T08:57:22.473Z,55.81
2023-01-11T09:00:05.786Z,55.98
2023-01-11T09:02:48.925Z,55.69
2023-01-11T09:05:33.460Z,55.16
2023-01-11T09:08:16.539Z,55.11
2023-01-11T09:11:00.255Z,55.97
2023-01-11T09:13:43.400Z,56.46
2023-01-11T09:16:26.551Z,58.21
2023-01-11T09:19:09.974Z,59.78
2023-01-11T09:21:57.985Z,58.71
2023-01-11T09:24:41.197Z,58.39
2023-01-11T09:27:24.674Z,58.24
2023-01-11T09:30:09.093Z,57.85
2023-01-11T09:32:53.076Z,56.93
2023-01-11T09:35:38.595Z,56.57
2023-01-11T09:38:25.391Z,55.60
2023-01-11T09:41:24.259Z,54.23
2023-01-11T09:44:16.741Z,53.10
2023-01-11T09:47:14.647Z,53.87
2023-01-11T09:50:02.804Z,53.87
2023-01-11T09:52:50.866Z,55.95
2023-01-11T09:55:39.472Z,55.54
2023-01-11T09:58:53.545Z,56.09
2023-01-11T10:01:41.282Z,56.53
2023-01-11T10:05:00.529Z,55.90
2023-01-11T10:18:22.984Z,53.03
2023-01-11T10:18:30.654Z,55.13
2023-01-11T10:20:56.340Z,57.51
2023-01-11T10:23:49.731Z,55.45
2023-01-11T10:26:40.217Z,54.93
2023-01-11T10:29:57.449Z,53.55
2023-01-11T10:33:08.908Z,54.47
2023-01-11T10:36:13.690Z,53.59
2023-01-11T10:39:15.862Z,52.84
2023-01-11T10:42:16.434Z,53.23
2023-01-11T10:45:05.227Z,52.86
2023-01-11T10:47:56.657Z,52.00
2023-01-11T10:50:43.323Z,53.47
2023-01-11T10:53:30.635Z,51.29
2023-01-11T10:56:24.246Z,51.71
2023-01-11T10:59:25.403Z,48.39
2023-01-11T11:02:26.169Z,44.84
2023-01-11T11:05:21.147Z,41.21
2023-01-11T11:08:14.851Z,41.34
2023-01-11T11:11:02.397Z,36.54
2023-01-11T11:13:54.088Z,37.80
2023-01-11T11:16:51.073Z,40.29
2023-01-11T11:19:34.836Z,41.81
2023-01-11T11:22:20.078Z,42.70
2023-01-11T11:25:06.647Z,43.38
2023-01-11T11:27:52.288Z,42.39
2023-01-11T11:30:38.301Z,42.07
2023-01-11T11:33:25.237Z,43.08
2023-01-11T11:36:09.988Z,44.97
2023-01-11T11:39:05.651Z,44.13
2023-01-11T11:41:51.066Z,46.05
2023-01-11T11:44:34.393Z,46.70
2023-01-11T11:47:18.527Z,47.26
2023-01-11T11:50:43.035Z,48.00
2023-01-11T11:53:35.554Z,50.04
2023-01-11T11:56:22.661Z,48.69
2023-01-11T11:59:10.409Z,48.79
2023-01-11T12:02:01.153Z,48.46
2023-01-11T12:04:48.187Z,49.62
2023-01-11T12:07:46.272Z,50.18
2023-01-11T12:10:40.188Z,51.58
2023-01-11T12:13:29.835Z,51.55
2023-01-11T12:16:22.996Z,50.82
2023-01-11T12:19:26.415Z,51.40
2023-01-11T12:22:16.983Z,50.60
2023-01-11T12:25:24.317Z,49.39
2023-01-11T12:28:15.754Z,49.79
2023-01-11T12:31:08.848Z,49.49
2023-01-11T12:34:00.203Z,49.74
2023-01-11T12:36:51.067Z,50.10
2023-01-11T12:39:45.702Z,52.16
2023-01-11T12:43:03.767Z,52.92
2023-01-11T12:45:56.836Z,53.71
2023-01-11T12:48:58.917Z,53.41
2023-01-11T12:51:59.698Z,51.89
2023-01-11T12:55:01.880Z,51.23
2023-01-11T12:58:01.339Z,52.30
2023-01-11T13:01:12.960Z,51.20
2023-01-11T13:04:31.449Z,52.16
2023-01-11T13:07:31.432Z,52.25
2023-01-11T13:10:25.187Z,52.33
2023-01-11T13:13:16.161Z,52.48
2023-01-11T13:16:03.606Z,51.21
2023-01-11T13:18:57.350Z,52.30
2023-01-11T13:21:44.759Z,52.31
2023-01-11T13:24:31.173Z,53.03
2023-01-11T13:27:19.064Z,53.22
2023-01-11T13:30:03.323Z,53.41
2023-01-11T13:32:54.231Z,53.82
2023-01-11T13:35:42.364Z,54.51
2023-01-11T13:38:35.866Z,56.00
2023-01-11T13:41:23.545Z,56.35
2023-01-11T13:44:14.587Z,57.53
2023-01-11T13:47:04.239Z,57.44
2023-01-11T13:50:00.762Z,58.72
2023-01-11T13:52:55.401Z,59.44
2023-01-11T13:55:46.668Z,59.74
2023-01-11T13:58:37.257Z,60.42
2023-01-11T14:01:26.926Z,60.01
2023-01-11T14:04:17.248Z,60.12
2023-01-11T14:07:19.243Z,60.01
2023-01-11T14:10:20.948Z,60.29
2023-01-11T14:13:47.959Z,59.68
2023-01-11T14:16:40.631Z,57.73
2023-01-11T14:19:30.451Z,57.78
2023-01-11T14:22:25.371Z,59.38
2023-01-11T14:25:16.228Z,60.34
2023-01-11T14:28:16.011Z,61.17
2023-01-11T14:31:16.083Z,61.11
2023-01-11T14:34:21.586Z,61.40
2023-01-11T14:37:38.510Z,62.13
2023-01-11T14:40:36.629Z,63.14
2023-01-11T14:43:47.520Z,63.13
2023-01-11T14:46:52.336Z,63.11
2023-01-11T14:49:51.779Z,63.42
2023-01-11T14:52:40.934Z,63.91
2023-01-11T14:55:27.251Z,63.67
2023-01-11T14:58:21.465Z,63.53
2023-01-11T15:01:11.643Z,65.56
2023-01-11T15:03:57.847Z,64.53
2023-01-11T15:06:54.546Z,64.83
2023-01-11T15:09:47.898Z,64.73
2023-01-11T15:12:38.170Z,64.43
2023-01-11T15:15:44.566Z,64.66
2023-01-11T15:18:28.625Z,65.32
2023-01-11T15:21:17.112Z,65.87
2023-01-11T15:24:00.322Z,65.36
2023-01-11T15:26:51.677Z,64.79
2023-01-11T15:29:39.580Z,63.74
2023-01-11T15:32:27.509Z,64.78
2023-01-11T15:35:33.914Z,64.14
2023-01-11T15:38:20.528Z,63.80
2023-01-11T15:41:19.264Z,64.88
2023-01-11T15:44:23.223Z,64.92
2023-01-11T15:47:36.475Z,63.88
2023-01-11T15:50:55.671Z,64.37
2023-01-11T15:54:04.539Z,64.37
2023-01-11T15:57:12.166Z,64.87
2023-01-11T16:00:22.647Z,66.23
2023-01-11T16:03:46.919Z,64.83
2023-01-11T16:06:44.868Z,64.85
2023-01-11T16:09:46.306Z,64.91
2023-01-11T16:12:46.255Z,65.92
2023-01-11T16:15:42.463Z,65.13
2023-01-11T16:18:29.239Z,67.01
2023-01-11T16:21:18.778Z,68.74
2023-01-11T16:24:03.539Z,70.41
2023-01-11T16:26:52.097Z,71.46
2023-01-11T16:29:37.120Z,72.93
2023-01-11T16:32:27.107Z,73.22
2023-01-11T16:35:19.365Z,73.72
2023-01-11T16:38:04.057Z,73.81
2023-01-11T16:40:50.228Z,74.10
2023-01-11T16:43:36.551Z,73.95
2023-01-11T16:47:16.956Z,74.91
2023-01-11T16:50:21.796Z,75.02
2023-01-11T16:53:06.382Z,76.00
2023-01-11T16:55:56.286Z,76.19
2023-01-11T16:58:40.753Z,75.81
2023-01-11T17:01:23.948Z,76.50
2023-01-11T17:04:10.110Z,76.25
2023-01-11T17:06:57.642Z,76.02
2023-01-11T17:09:42.990Z,75.57
2023-01-11T17:12:29.032Z,76.84
2023-01-11T17:15:23.226Z,76.22
2023-01-11T17:18:06.507Z,76.97
2023-01-11T17:20:54.487Z,77.46
2023-01-11T17:23:40.729Z,77.29
2023-01-11T17:26:26.692Z,76.27
2023-01-11T17:29:11.181Z,76.49
2023-01-11T17:31:56.155Z,77.26
2023-01-11T17:34:40.549Z,76.87
2023-01-11T17:37:24.620Z,76.19
2023-01-11T17:40:22.591Z,75.95
2023-01-11T17:43:28.788Z,75.85
2023-01-11T17:46:19.106Z,75.96
2023-01-11T17:49:02.280Z,76.85
2023-01-11T17:51:46.468Z,77.18
2023-01-11T17:54:30.656Z,77.07
2023-01-11T17:57:15.421Z,76.07
2023-01-11T18:00:19.793Z,76.06
2023-01-11T18:03:10.516Z,76.96
2023-01-11T18:05:53.966Z,77.17
2023-01-11T18:08:37.308Z,77.06
2023-01-11T18:11:29.473Z,77.00
2023-01-11T18:14:22.010Z,76.73
2023-01-11T18:17:08.115Z,76.41
2023-01-11T18:19:51.238Z,75.85
2023-01-11T18:22:37.417Z,76.48
2023-01-11T18:25:22.712Z,76.88
2023-01-11T18:28:30.003Z,76.22
2023-01-11T18:31:16.817Z,75.68
2023-01-11T18:34:00.582Z,75.71
2023-01-11T18:36:43.664Z,75.55
2023-01-11T18:39:26.852Z,75.90
2023-01-11T18:42:16.786Z,75.73
2023-01-11T18:45:00.082Z,76.77
2023-01-11T18:47:44.780Z,76.05
2023-01-11T18:50:28.205Z,76.64
2023-01-11T18:53:12.553Z,76.67
2023-01-11T18:55:55.996Z,76.27
2023-01-11T18:58:39.124Z,76.33
2023-01-11T19:01:22.513Z,76.59
2023-01-11T19:04:07.999Z,77.17
2023-01-11T19:06:52.466Z,75.93
2023-01-11T19:09:35.586Z,76.31
2023-01-11T19:12:19.360Z,76.14
2023-01-11T19:15:03.913Z,75.07
2023-01-11T19:17:48.183Z,75.04
2023-01-11T19:20:33.941Z,74.26
2023-01-11T19:23:17.270Z,73.68
2023-01-11T19:26:02.321Z,73.74
2023-01-11T19:28:46.756Z,74.29
2023-01-11T19:31:30.113Z,75.07
2023-01-11T19:34:13.489Z,74.98
2023-01-11T19:37:05.374Z,75.48
2023-01-11T19:39:50.011Z,75.11
2023-01-11T19:42:33.220Z,74.40
2023-01-11T19:45:17.491Z,74.61
2023-01-11T19:48:00.806Z,74.79
2023-01-11T19:50:44.931Z,75.60
2023-01-11T19:53:31.076Z,74.72
2023-01-11T19:56:14.379Z,74.66
2023-01-11T19:58:57.479Z,75.26
2023-01-11T20:01:41.695Z,75.44
2023-01-11T20:04:32.508Z,75.34
2023-01-11T20:07:18.489Z,75.72
2023-01-11T20:10:03.216Z,74.85
2023-01-11T20:12:46.367Z,75.36
2023-01-11T20:15:30.268Z,75.58
2023-01-11T20:18:13.746Z,75.82
2023-01-11T20:21:00.707Z,74.99
2023-01-11T20:23:51.928Z,75.80
2023-01-11T20:26:37.364Z,74.03
2023-01-11T20:29:20.723Z,74.81
2023-01-11T20:32:27.814Z,75.00
2023-01-11T20:35:08.146Z,74.31
2023-01-11T20:37:51.275Z,74.47
2023-01-11T20:40:34.473Z,74.44
2023-01-11T20:43:19.788Z,74.64
2023-01-11T20:46:03.422Z,74.42
2023-01-11T20:48:52.178Z,74.63
2023-01-11T20:51:35.493Z,74.57
2023-01-11T20:54:19.215Z,74.34
2023-01-11T20:57:05.688Z,75.86
2023-01-11T20:59:52.714Z,75.60
2023-01-11T21:02:36.275Z,75.40
2023-01-11T21:05:19.347Z,75.68
2023-01-11T21:08:02.552Z,75.68
2023-01-11T21:10:45.650Z,75.36
2023-01-11T21:13:28.821Z,75.05
2023-01-11T21:16:17.767Z,75.93
2023-01-11T21:19:05.447Z,75.89
2023-01-11T21:21:49.730Z,76.39
2023-01-11T21:24:33.027Z,75.55
2023-01-11T21:27:16.236Z,75.32
2023-01-11T21:29:59.458Z,75.51
2023-01-11T21:32:44.046Z,76.17
2023-01-11T21:35:27.261Z,75.31
2023-01-11T21:38:10.472Z,76.73
2023-01-11T21:40:53.621Z,76.80
2023-01-11T21:43:37.617Z,76.70
2023-01-11T21:46:20.726Z,76.80
2023-01-11T21:49:05.561Z,76.75
2023-01-11T21:51:48.686Z,76.51
2023-01-11T21:54:31.831Z,76.57
2023-01-11T21:57:14.956Z,77.41
2023-01-11T21:59:57.980Z,77.09
2023-01-11T22:02:41.101Z,76.04
2023-01-11T22:05:26.194Z,76.83
2023-01-11T22:08:09.290Z,76.49
2023-01-11T22:10:58.531Z,76.94
2023-01-11T22:13:42.289Z,76.78
2023-01-11T22:20:20.887Z,77.58
2023-01-11T22:23:05.667Z,78.02
2023-01-11T22:25:49.010Z,78.76
2023-01-11T22:28:32.180Z,78.19
2023-01-11T22:31:15.870Z,78.79
2023-01-11T22:33:59.426Z,78.82
2023-01-11T22:36:43.228Z,78.35
2023-01-11T22:39:29.561Z,78.67
2023-01-11T22:42:12.705Z,78.18
2023-01-11T22:44:55.854Z,78.26
2023-01-11T22:47:39.046Z,77.35
2023-01-11T22:50:22.555Z,78.10
2023-01-11T22:53:05.717Z,76.70
2023-01-11T22:55:50.448Z,77.05
2023-01-11T22:58:35.116Z,77.43
2023-01-11T23:01:20.242Z,77.90
2023-01-11T23:04:03.948Z,78.23
2023-01-11T23:06:47.451Z,78.85
2023-01-11T23:09:30.776Z,78.44
2023-01-11T23:12:33.016Z,78.00
2023-01-11T23:15:16.254Z,77.76
2023-01-11T23:17:59.978Z,78.26
2023-01-11T23:20:43.047Z,77.17
2023-01-11T23:23:28.481Z,77.51
2023-01-11T23:26:12.913Z,77.31
2023-01-11T23:28:57.499Z,77.97
2023-01-11T23:31:40.779Z,77.95
2023-01-11T23:34:24.119Z,79.10
2023-01-11T23:37:08.421Z,78.25
2023-01-11T23:39:51.507Z,77.74
2023-01-11T23:42:35.575Z,77.59
2023-01-11T23:45:20.080Z,77.60
2023-01-11T23:48:02.069Z,77.66
2023-01-11T23:50:45.196Z,77.34
2023-01-11T23:53:28.368Z,76.96
2023-01-11T23:56:11.572Z,77.66
2023-01-11T23:58:55.096Z,77.48
